Time;durP1;ratioP1;P1;durP2;ratioP2;P2;SDS_P1;SDS_P2;PMS_P1;PMS_P2;Temp;Humidity;BMP_temperature;BMP_pressure;BME280_temperature;BME280_humidity;BME280_pressure;Samples;Min_cycle;Max_cycle;Signal;HPM_P1;HPM_P2
2021/07/10 00:01:52;;;;;;;8.30;7.70;;;20.50;99.90;;;;;;5019291;28;20454;-86
2021/07/10 00:04:18;;;;;;;8.10;7.30;;;20.70;99.90;;;;;;5037492;28;20488;-87
2021/07/10 00:06:45;;;;;;;8.43;7.73;;;20.60;99.90;;;;;;5037032;28;20464;-88
2021/07/10 00:09:12;;;;;;;9.40;8.40;;;20.60;99.90;;;;;;5055697;28;20468;-87
2021/07/10 00:11:39;;;;;;;8.50;7.80;;;20.60;99.90;;;;;;5058684;28;20475;-87
2021/07/10 00:14:06;;;;;;;9.63;8.77;;;20.60;99.90;;;;;;5058743;28;20808;-88
2021/07/10 00:16:33;;;;;;;8.30;7.50;;;20.60;99.90;;;;;;5039278;28;20449;-87
2021/07/10 00:19:00;;;;;;;8.00;7.30;;;20.50;99.90;;;;;;5021716;28;20500;-87
2021/07/10 00:30:27;;;;;;;;;;;;;;;;;;;;;
2021/07/10 00:37:06;;;;;;;7.97;7.27;;;20.60;99.90;;;;;;4891282;29;20436;-86
2021/07/10 00:39:33;;;;;;;8.70;7.80;;;20.40;99.90;;;;;;4938704;28;20470;-86
2021/07/10 00:41:59;;;;;;;8.50;7.80;;;20.20;99.90;;;;;;5029774;28;20449;-85
2021/07/10 00:44:26;;;;;;;9.53;8.73;;;20.10;99.90;;;;;;5019792;28;20830;-85
2021/07/10 00:46:53;;;;;;;8.93;8.07;;;20.30;99.90;;;;;;5026695;28;20444;-85
2021/07/10 00:49:19;;;;;;;9.00;8.10;;;20.20;99.90;;;;;;5026945;28;20473;-85
2021/07/10 00:51:46;;;;;;;9.73;8.60;;;20.10;99.90;;;;;;5039468;28;20495;-86
2021/07/10 00:55:10;;;;;;;8.90;8.00;;;20.10;99.90;;;;;;5033467;28;20469;-85
2021/07/10 00:57:37;;;;;;;9.70;8.70;;;20.00;99.90;;;;;;5008596;28;20464;-85
2021/07/10 01:00:07;;;;;;;9.20;8.30;;;20.10;99.90;;;;;;5031533;28;20858;-86
2021/07/10 01:02:34;;;;;;;9.43;8.70;;;20.10;99.90;;;;;;5030799;28;20463;-87
2021/07/10 01:05:06;;;;;;;9.40;8.50;;;20.10;99.90;;;;;;5045089;28;20511;-87
2021/07/10 01:07:33;;;;;;;10.00;8.80;;;20.20;99.90;;;;;;5026216;28;20499;-87
2021/07/10 01:10:02;;;;;;;10.60;9.50;;;20.20;99.90;;;;;;5038994;28;20569;-86
2021/07/10 01:12:33;;;;;;;10.23;9.33;;;20.20;99.90;;;;;;5024481;28;20461;-86
2021/07/10 01:15:00;;;;;;;10.53;9.37;;;20.10;99.90;;;;;;5041185;28;20458;-86
2021/07/10 01:17:27;;;;;;;10.90;9.93;;;19.90;99.90;;;;;;5023638;28;20464;-86
2021/07/10 01:20:03;;;;;;;10.73;9.80;;;20.00;99.90;;;;;;5026342;28;20990;-86
2021/07/10 01:22:30;;;;;;;10.30;9.40;;;19.90;99.90;;;;;;5040892;28;20536;-88
2021/07/10 01:24:57;;;;;;;10.77;9.80;;;19.70;99.90;;;;;;5040460;28;20499;-87
2021/07/10 01:27:23;;;;;;;9.40;8.47;;;19.70;99.90;;;;;;5041491;28;20449;-87
2021/07/10 01:29:52;;;;;;;9.27;8.37;;;19.70;99.90;;;;;;5041670;28;20457;-87
2021/07/10 01:32:20;;;;;;;9.60;8.77;;;19.80;99.90;;;;;;5058692;28;20484;-86
2021/07/10 01:34:48;;;;;;;9.30;8.50;;;20.00;99.90;;;;;;5049360;28;20476;-87
2021/07/10 01:37:15;;;;;;;9.90;8.90;;;19.90;99.90;;;;;;5047726;28;20509;-87
2021/07/10 01:39:43;;;;;;;11.00;9.90;;;19.90;99.90;;;;;;5012336;28;20480;-87
2021/07/10 01:42:11;;;;;;;10.70;9.20;;;20.00;99.90;;;;;;5010192;28;20446;-86
2021/07/10 01:44:39;;;;;;;10.53;9.53;;;20.00;99.90;;;;;;5030075;28;20465;-87
2021/07/10 01:47:06;;;;;;;10.03;9.23;;;19.80;99.90;;;;;;5012628;28;20462;-87
2021/07/10 01:49:33;;;;;;;10.13;9.17;;;19.80;99.90;;;;;;5028581;28;20545;-86
2021/07/10 01:52:00;;;;;;;10.60;9.70;;;19.70;99.90;;;;;;5024237;28;20452;-85
2021/07/10 01:58:08;;;;;;;13.57;9.53;;;19.80;99.90;;;;;;5022102;28;20398;-87
2021/07/10 02:00:39;;;;;;;9.80;8.90;;;19.80;99.90;;;;;;5020345;28;20484;-87
2021/07/10 02:03:05;;;;;;;9.87;8.93;;;19.60;99.90;;;;;;5021932;28;20485;-86
2021/07/10 02:05:32;;;;;;;10.93;8.87;;;19.60;99.90;;;;;;5004661;28;20489;-86
2021/07/10 02:08:00;;;;;;;53.10;9.97;;;19.70;99.90;;;;;;5022942;28;20453;-87
2021/07/10 02:10:31;;;;;;;10.90;9.90;;;19.70;99.90;;;;;;5022411;28;20568;-87
2021/07/10 02:13:01;;;;;;;11.13;9.97;;;19.60;99.90;;;;;;5028543;28;20464;-86
2021/07/10 02:15:28;;;;;;;9.57;8.60;;;19.70;99.90;;;;;;5028086;28;20457;-85
2021/07/10 02:17:55;;;;;;;10.97;9.97;;;19.70;99.90;;;;;;5046145;28;20438;-86
2021/07/10 02:20:23;;;;;;;9.90;8.90;;;19.70;99.90;;;;;;5034775;28;20885;-87
2021/07/10 02:22:50;;;;;;;9.93;9.00;;;19.70;99.90;;;;;;5026537;28;20450;-87
2021/07/10 02:25:20;;;;;;;11.17;8.87;;;19.60;99.90;;;;;;5009877;28;20486;-86
2021/07/10 02:27:47;;;;;;;10.37;9.47;;;19.60;99.90;;;;;;5009934;28;20510;-87
2021/07/10 02:30:17;;;;;;;9.97;8.97;;;19.50;99.90;;;;;;5010809;28;20475;-87
2021/07/10 02:32:45;;;;;;;10.90;9.70;;;19.60;99.90;;;;;;5027106;28;20450;-88
2021/07/10 02:35:14;;;;;;;10.03;9.13;;;19.70;99.90;;;;;;5027613;28;20450;-86
2021/07/10 02:37:42;;;;;;;9.33;8.63;;;19.60;99.90;;;;;;5009357;28;20462;-87
2021/07/10 02:40:11;;;;;;;11.53;8.90;;;19.60;99.90;;;;;;5008783;28;21025;-87
2021/07/10 02:42:39;;;;;;;9.83;8.80;;;19.50;99.90;;;;;;5008396;28;20453;-87
2021/07/10 02:45:08;;;;;;;11.47;10.47;;;19.60;99.90;;;;;;5007071;28;20477;-87
2021/07/10 02:47:35;;;;;;;11.63;9.50;;;19.40;99.90;;;;;;5009216;28;20454;-87
2021/07/10 02:50:08;;;;;;;9.87;8.57;;;19.30;99.90;;;;;;5024521;28;20469;-87
2021/07/10 02:52:35;;;;;;;9.33;8.50;;;19.30;99.90;;;;;;5026305;28;20442;-87
2021/07/10 02:55:04;;;;;;;9.80;8.90;;;19.20;99.90;;;;;;5024588;28;20453;-87
2021/07/10 02:57:31;;;;;;;9.00;8.20;;;19.30;99.90;;;;;;5026920;28;20528;-87
2021/07/10 02:59:57;;;;;;;9.67;8.77;;;19.40;99.90;;;;;;5025073;28;20475;-86
2021/07/10 03:06:28;;;;;;;10.90;9.87;;;19.60;99.90;;;;;;4951011;28;20472;-86
2021/07/10 03:08:55;;;;;;;9.97;9.00;;;19.40;99.90;;;;;;5043342;28;20438;-86
2021/07/10 03:11:22;;;;;;;11.27;10.17;;;19.40;99.90;;;;;;5024402;28;20669;-86
2021/07/10 03:13:49;;;;;;;11.23;10.23;;;19.30;99.90;;;;;;5026215;28;20541;-87
2021/07/10 03:16:16;;;;;;;12.03;10.93;;;19.20;99.90;;;;;;5045281;28;20480;-86
2021/07/10 03:22:31;;;;;;;12.87;11.77;;;19.10;99.90;;;;;;5014743;28;20441;-87
2021/07/10 03:24:58;;;;;;;11.37;10.37;;;18.80;99.90;;;;;;5008058;28;20553;-87
2021/07/10 03:27:25;;;;;;;12.47;11.27;;;18.70;99.90;;;;;;5026220;28;20460;-86
2021/07/10 03:29:52;;;;;;;13.20;10.90;;;18.60;99.90;;;;;;5012687;28;20523;-86
2021/07/10 03:32:18;;;;;;;12.17;11.07;;;18.50;99.90;;;;;;5045020;28;20433;-85
2021/07/10 03:34:45;;;;;;;13.47;12.07;;;18.50;99.90;;;;;;5044147;28;20540;-86
2021/07/10 03:37:12;;;;;;;12.00;10.90;;;18.60;99.90;;;;;;5044795;28;20544;-86
2021/07/10 03:43:27;;;;;;;11.40;10.30;;;18.80;99.90;;;;;;5036471;28;20409;-86
2021/07/10 03:45:53;;;;;;;10.93;10.03;;;18.60;99.90;;;;;;5019574;28;20549;-86
2021/07/10 03:48:20;;;;;;;12.07;10.97;;;18.80;99.90;;;;;;5028290;28;20861;-86
2021/07/10 03:54:41;;;;;;;13.47;10.93;;;18.80;99.90;;;;;;4989727;28;20437;-85
2021/07/10 04:00:34;;;;;;;11.53;10.40;;;18.70;99.90;;;;;;5057758;28;20473;-87
2021/07/10 04:03:01;;;;;;;11.87;10.80;;;18.50;99.90;;;;;;5048287;28;20453;-87
2021/07/10 04:05:27;;;;;;;12.40;11.20;;;18.70;99.90;;;;;;5042366;28;20472;-86
2021/07/10 04:07:54;;;;;;;14.37;12.50;;;18.80;99.90;;;;;;5045145;28;20445;-87
2021/07/10 04:10:21;;;;;;;14.00;12.60;;;18.70;99.90;;;;;;5047543;28;20511;-86
2021/07/10 04:12:48;;;;;;;13.33;12.03;;;18.60;99.90;;;;;;5026225;28;20464;-87
2021/07/10 04:15:16;;;;;;;15.87;14.40;;;18.60;99.90;;;;;;5012591;28;20543;-87
2021/07/10 04:17:43;;;;;;;15.20;13.60;;;18.50;99.90;;;;;;5010131;28;20498;-86
2021/07/10 04:20:11;;;;;;;14.77;13.37;;;18.50;99.90;;;;;;5030207;28;20550;-86
2021/07/10 04:22:41;;;;;;;15.10;13.60;;;18.50;99.90;;;;;;5034949;28;20447;-86
2021/07/10 04:28:57;;;;;;;16.20;13.80;;;18.70;99.90;;;;;;4978874;28;20445;-88
2021/07/10 04:32:11;;;;;;;15.80;14.30;;;18.60;99.90;;;;;;5032772;28;20454;-88
2021/07/10 04:34:38;;;;;;;14.87;13.20;;;18.60;99.90;;;;;;5048130;28;20448;-86
2021/07/10 04:37:05;;;;;;;13.83;12.53;;;18.80;99.90;;;;;;5030239;28;20470;-84
2021/07/10 04:39:33;;;;;;;15.37;13.87;;;18.80;99.90;;;;;;5035614;28;20465;-86
2021/07/10 04:49:43;;;;;;;14.03;12.67;;;18.80;99.90;;;;;;5037773;28;20505;-88
2021/07/10 04:52:09;;;;;;;16.03;14.57;;;18.90;99.90;;;;;;5055695;28;20441;-87
2021/07/10 04:54:37;;;;;;;15.30;13.97;;;18.90;99.90;;;;;;5047117;28;20530;-87
2021/07/10 04:57:04;;;;;;;15.90;13.90;;;19.00;99.90;;;;;;5038163;28;20460;-87
2021/07/10 04:59:31;;;;;;;15.13;13.60;;;18.90;99.90;;;;;;5018507;28;20488;-85
2021/07/10 05:12:20;;;;;;;13.90;12.40;;;19.00;99.90;;;;;;5290934;23;20494;-87
2021/07/10 05:14:49;;;;;;;13.80;12.50;;;19.30;99.90;;;;;;5026497;28;20462;-87
2021/07/10 05:17:18;;;;;;;13.23;11.93;;;19.30;99.90;;;;;;5022082;28;20447;-87
2021/07/10 05:19:47;;;;;;;14.70;13.30;;;19.30;99.90;;;;;;5022285;28;20485;-87
2021/07/10 05:22:15;;;;;;;13.53;12.20;;;19.20;99.90;;;;;;5012411;28;20447;-87
2021/07/10 05:24:42;;;;;;;14.67;13.27;;;19.20;99.90;;;;;;4988259;28;20483;-86
2021/07/10 05:27:09;;;;;;;14.17;12.87;;;19.00;99.90;;;;;;4999708;28;20978;-87
2021/07/10 05:32:18;;;;;;;14.40;12.17;;;19.10;99.90;;;;;;5442704;23;20502;-87
2021/07/10 05:38:37;;;;;;;14.23;12.83;;;19.00;99.90;;;;;;4873631;29;20429;-87
2021/07/10 05:41:04;;;;;;;13.80;12.40;;;18.90;99.90;;;;;;4883129;29;20556;-86
2021/07/10 05:43:31;;;;;;;13.00;11.80;;;18.90;99.90;;;;;;4948280;29;20533;-87
2021/07/10 05:45:58;;;;;;;16.30;13.50;;;18.80;99.90;;;;;;4932587;29;20486;-86
2021/07/10 05:51:19;;;;;;;12.50;11.30;;;18.80;99.90;;;;;;5364505;23;20483;-87
2021/07/10 05:53:46;;;;;;;12.40;11.30;;;18.80;99.90;;;;;;5027413;28;20437;-88
2021/07/10 05:56:13;;;;;;;12.13;10.93;;;18.80;99.90;;;;;;5019147;28;20465;-87
2021/07/10 06:09:01;;;;;;;12.17;11.07;;;19.30;99.90;;;;;;4992352;28;20445;-88
2021/07/10 06:11:32;;;;;;;13.40;12.13;;;19.20;99.90;;;;;;5028724;28;20456;-88
2021/07/10 06:18:36;;;;;;;11.60;10.60;;;19.00;99.90;;;;;;4987436;28;21039;-87
2021/07/10 06:21:06;;;;;;;11.33;10.00;;;19.10;99.90;;;;;;5804404;23;20505;-86
2021/07/10 06:23:33;;;;;;;13.57;10.83;;;19.20;99.90;;;;;;5027265;28;20466;-86
2021/07/10 06:26:00;;;;;;;12.13;11.03;;;19.30;99.90;;;;;;5011397;28;20483;-87
2021/07/10 06:28:27;;;;;;;12.33;11.33;;;19.40;99.90;;;;;;5030428;28;20457;-85
2021/07/10 06:30:53;;;;;;;13.13;11.97;;;19.60;99.90;;;;;;5030923;28;20557;-86
2021/07/10 06:33:20;;;;;;;12.17;10.63;;;19.60;99.90;;;;;;5023998;28;20464;-86
2021/07/10 06:35:47;;;;;;;13.83;12.53;;;19.60;99.90;;;;;;4998087;28;21078;-87
2021/07/10 06:38:14;;;;;;;13.63;11.97;;;19.70;99.90;;;;;;5016882;28;20442;-87
2021/07/10 06:40:41;;;;;;;13.00;11.70;;;19.80;99.90;;;;;;5016630;28;20472;-86
2021/07/10 06:51:00;;;;;;;12.40;11.30;;;20.00;99.90;;;;;;4985967;28;20528;-86
2021/07/10 06:53:27;;;;;;;11.60;10.60;;;20.00;99.90;;;;;;4970057;28;20463;-87
2021/07/10 06:55:54;;;;;;;13.03;11.83;;;20.00;99.90;;;;;;5026494;28;20462;-86
2021/07/10 07:08:00;;;;;;;11.80;10.70;;;19.90;99.90;;;;;;5003932;28;20449;-84
2021/07/10 07:10:28;;;;;;;11.30;10.20;;;19.80;99.90;;;;;;5004703;28;20967;-85
2021/07/10 07:13:09;;;;;;;12.53;11.40;;;20.30;99.90;;;;;;5014174;28;20434;-87
2021/07/10 07:19:34;;;;;;;11.70;10.70;;;20.90;99.90;;;;;;4958631;29;20501;-86
2021/07/10 07:22:01;;;;;;;11.80;10.63;;;20.90;99.90;;;;;;4960719;28;20469;-87
2021/07/10 07:24:28;;;;;;;9.73;8.83;;;21.30;99.90;;;;;;5011125;28;20526;-86
2021/07/10 07:36:08;;;;;;;10.77;9.70;;;21.90;99.90;;;;;;5723060;23;20871;-87
2021/07/10 07:52:09;;;;;;;11.00;10.00;;;22.10;99.90;;;;;;5992273;23;20454;-86
2021/07/10 07:55:17;;;;;;;10.17;9.37;;;22.10;99.90;;;;;;5017705;28;20466;-88
2021/07/10 07:57:44;;;;;;;10.00;8.63;;;22.10;99.90;;;;;;5011005;28;20462;-86
2021/07/10 08:00:19;;;;;;;10.73;9.77;;;22.10;99.90;;;;;;5004735;28;20471;-87
2021/07/10 08:02:48;;;;;;;10.27;9.30;;;22.00;99.90;;;;;;5016805;28;20588;-86
2021/07/10 08:09:12;;;;;;;9.90;8.90;;;22.20;99.90;;;;;;4989479;28;20478;-86
2021/07/10 08:11:39;;;;;;;10.00;9.00;;;22.10;99.90;;;;;;5003919;28;20447;-87
2021/07/10 08:14:06;;;;;;;10.03;9.23;;;22.40;99.90;;;;;;5021451;28;20441;-87
2021/07/10 08:16:33;;;;;;;10.63;9.50;;;22.60;99.60;;;;;;5008171;28;20462;-88
2021/07/10 08:19:00;;;;;;;8.93;8.23;;;22.50;99.60;;;;;;5006307;28;20564;-86
2021/07/10 08:21:29;;;;;;;10.87;9.87;;;22.50;99.80;;;;;;5005604;28;20477;-87
2021/07/10 08:23:57;;;;;;;9.00;8.13;;;22.70;99.50;;;;;;5004725;28;20970;-86
2021/07/10 08:30:18;;;;;;;8.97;8.13;;;22.80;98.70;;;;;;4979844;28;20482;-86
2021/07/10 08:32:47;;;;;;;10.07;8.47;;;23.00;98.40;;;;;;5041583;28;20430;-87
2021/07/10 08:35:16;;;;;;;9.73;8.33;;;23.40;98.20;;;;;;5015290;28;20472;-87
2021/07/10 08:37:43;;;;;;;9.77;8.60;;;23.70;97.20;;;;;;5021877;28;20461;-87
2021/07/10 08:40:11;;;;;;;8.63;7.93;;;23.40;96.20;;;;;;5004243;28;20491;-87
2021/07/10 08:52:44;;;;;;;10.80;9.70;;;23.90;95.10;;;;;;5594557;23;20481;-85
2021/07/10 08:55:14;;;;;;;10.63;8.90;;;24.30;94.10;;;;;;5022287;28;20434;-85
2021/07/10 08:57:42;;;;;;;10.10;9.00;;;24.90;93.20;;;;;;5021734;28;20535;-85
2021/07/10 09:31:55;;;;;;;9.20;8.47;;;25.00;90.70;;;;;;5580544;23;20875;-85
2021/07/10 09:34:33;;;;;;;9.00;8.20;;;25.00;90.20;;;;;;5024309;28;20457;-87
2021/07/10 09:37:54;;;;;;;9.13;8.30;;;24.80;90.30;;;;;;4981255;28;20475;-85
2021/07/10 09:41:16;;;;;;;;;;;;;;;;;;;;;
2021/07/10 09:44:48;;;;;;;8.80;8.00;;;24.60;90.40;;;;;;4981330;28;20463;-86
2021/07/10 09:51:27;;;;;;;8.30;7.63;;;25.60;89.40;;;;;;4980612;28;20537;-85
2021/07/10 10:04:27;;;;;;;8.23;7.53;;;24.90;91.00;;;;;;5640471;23;20473;-84
2021/07/10 10:13:21;;;;;;;10.63;7.93;;;25.60;88.60;;;;;;5999817;23;20434;-84
2021/07/10 10:16:16;;;;;;;8.03;7.33;;;25.50;88.60;;;;;;5028349;28;20429;-85
2021/07/10 10:18:43;;;;;;;8.97;8.17;;;25.50;87.70;;;;;;5013280;28;20483;-83
2021/07/10 10:21:10;;;;;;;8.17;7.33;;;25.50;88.30;;;;;;4988195;28;20454;-83
2021/07/10 10:23:37;;;;;;;8.73;7.83;;;25.40;89.20;;;;;;5019772;28;20560;-89
2021/07/10 10:26:04;;;;;;;7.90;7.20;;;25.60;88.40;;;;;;5025454;28;21119;-85
2021/07/10 10:54:23;;;;;;;7.13;6.63;;;26.90;82.70;;;;;;945962;23;21540;-85
2021/07/10 11:11:41;;;;;;;;;;;;;;;;;;;;;
2021/07/10 11:21:45;;;;;;;6.33;5.83;;;27.80;72.00;;;;;;4960527;28;20470;-85
2021/07/10 11:27:14;;;;;;;5.77;5.27;;;28.00;72.30;;;;;;4973504;28;20475;-85
2021/07/10 11:30:17;;;;;;;5.23;4.80;;;28.10;72.30;;;;;;4953521;23;20546;-88
2021/07/10 11:32:44;;;;;;;5.63;4.40;;;28.20;70.00;;;;;;5004140;28;20446;-86
2021/07/10 11:35:11;;;;;;;4.90;4.37;;;28.10;68.70;;;;;;5013017;28;20462;-86
2021/07/10 11:38:32;;;;;;;4.43;4.13;;;28.10;68.00;;;;;;5019291;28;20469;-87
2021/07/10 11:41:03;;;;;;;3.87;3.57;;;28.50;64.80;;;;;;4931261;28;20495;-87
2021/07/10 11:44:37;;;;;;;;;;;;;;;;;;;;;
2021/07/10 11:47:39;;;;;;;3.37;3.17;;;28.40;66.50;;;;;;4932559;28;20501;-86
2021/07/10 11:50:17;;;;;;;3.80;3.40;;;28.90;61.20;;;;;;4999452;28;20467;-87
2021/07/10 11:53:05;;;;;;;3.80;3.23;;;28.90;60.50;;;;;;5001277;28;20519;-87
2021/07/10 11:55:35;;;;;;;4.10;3.80;;;29.40;59.20;;;;;;5000842;28;20440;-86
2021/07/10 11:58:08;;;;;;;5.40;4.97;;;28.40;61.30;;;;;;4995201;28;20487;-88
2021/07/10 12:00:37;;;;;;;5.50;4.70;;;28.40;62.80;;;;;;5009755;28;20481;-86
2021/07/10 12:03:21;;;;;;;4.07;3.70;;;28.00;64.40;;;;;;5000056;28;20459;-88
2021/07/10 12:05:49;;;;;;;4.37;4.10;;;27.90;63.80;;;;;;5008096;28;20451;-87
2021/07/10 12:08:18;;;;;;;5.00;4.60;;;27.70;65.70;;;;;;4991518;28;20522;-87
2021/07/10 12:10:47;;;;;;;4.83;4.43;;;27.50;66.40;;;;;;5018808;28;20537;-87
2021/07/10 12:13:18;;;;;;;4.80;4.30;;;27.10;66.60;;;;;;5019066;28;20460;-86
2021/07/10 12:19:36;;;;;;;4.70;4.30;;;26.40;69.30;;;;;;4971419;28;20513;-87
2021/07/10 12:22:09;;;;;;;5.33;4.83;;;26.10;70.80;;;;;;4985766;28;20486;-87
2021/07/10 12:24:36;;;;;;;4.80;4.40;;;26.10;70.50;;;;;;5011181;28;20520;-86
2021/07/10 12:27:55;;;;;;;4.57;4.07;;;25.80;70.90;;;;;;5022940;28;20470;-88
2021/07/10 12:33:27;;;;;;;4.20;3.90;;;26.00;72.70;;;;;;5532990;23;20500;-87
2021/07/10 12:36:05;;;;;;;4.40;4.10;;;25.80;72.00;;;;;;5030660;28;20444;-87
2021/07/10 12:45:15;;;;;;;4.50;4.10;;;25.80;72.70;;;;;;4954728;28;20445;-90
2021/07/10 12:51:10;;;;;;;4.40;4.10;;;25.50;74.10;;;;;;5439753;23;20524;-87
2021/07/10 12:53:39;;;;;;;5.30;4.90;;;25.50;74.40;;;;;;5033742;28;20509;-89
2021/07/10 12:59:37;;;;;;;4.40;4.10;;;25.80;73.30;;;;;;5170415;23;20864;-85
2021/07/10 13:09:56;;;;;;;6.20;4.40;;;25.90;72.50;;;;;;4993988;28;20459;-91
2021/07/10 13:12:42;;;;;;;5.53;4.27;;;26.20;72.70;;;;;;4998345;28;20448;-88
2021/07/10 13:15:14;;;;;;;4.30;3.90;;;26.10;71.90;;;;;;5004460;28;20501;-88
2021/07/10 13:17:41;;;;;;;4.53;3.97;;;26.60;70.70;;;;;;5038488;28;20441;-89
2021/07/10 13:24:02;;;;;;;3.87;3.53;;;27.10;67.40;;;;;;5015514;28;20445;-86
2021/07/10 13:26:33;;;;;;;3.67;3.37;;;27.00;67.20;;;;;;5014070;28;20477;-85
2021/07/10 13:37:27;;;;;;;4.47;4.17;;;26.60;65.40;;;;;;4955396;29;20469;-84
2021/07/10 13:41:00;;;;;;;4.00;3.70;;;26.40;67.30;;;;;;4943151;29;20608;-88
2021/07/10 13:44:02;;;;;;;3.80;3.50;;;26.40;67.60;;;;;;4885974;29;20444;-85
2021/07/10 13:55:29;;;;;;;4.20;3.90;;;26.30;69.10;;;;;;4867063;29;20464;-86
2021/07/10 13:58:29;;;;;;;4.73;4.33;;;26.60;67.10;;;;;;4879357;29;20462;-86
2021/07/10 14:04:33;;;;;;;4.47;4.07;;;26.70;67.50;;;;;;4900861;29;20529;-85
2021/07/10 14:11:34;;;;;;;4.30;4.00;;;26.30;69.20;;;;;;4866935;29;20974;-87
2021/07/10 14:15:12;;;;;;;4.30;4.00;;;26.50;69.40;;;;;;4883030;29;20444;-86
2021/07/10 14:17:54;;;;;;;4.30;4.00;;;26.20;69.00;;;;;;4877083;29;20507;-86
2021/07/10 14:21:22;;;;;;;4.00;3.60;;;26.00;69.30;;;;;;4914913;28;21261;-86
2021/07/10 14:25:07;;;;;;;;;;;;;;;;;;;;;
2021/07/10 14:27:55;;;;;;;4.63;4.23;;;26.40;68.60;;;;;;4813494;29;20502;-86
2021/07/10 14:30:27;;;;;;;4.07;3.77;;;26.30;71.20;;;;;;4845361;29;20585;-86
2021/07/10 14:45:39;;;;;;;4.10;3.80;;;26.70;67.10;;;;;;4878384;29;20441;-86
2021/07/10 14:51:54;;;;;;;4.50;4.20;;;26.60;65.80;;;;;;5067510;23;20547;-85
2021/07/10 15:55:15;;;;;;;;;;;;;;;;;;;;;
2021/07/10 16:04:54;;;;;;;;;;;;;;;;;;;;;
2021/07/10 16:08:56;;;;;;;5.53;4.87;;;24.80;79.00;;;;;;5037087;28;20468;-86
2021/07/10 16:11:29;;;;;;;5.93;5.17;;;24.80;79.90;;;;;;4961272;28;20453;-85
2021/07/10 16:13:55;;;;;;;5.70;5.30;;;24.90;80.20;;;;;;4972827;28;20869;-86
2021/07/10 16:16:22;;;;;;;5.37;4.93;;;25.10;80.90;;;;;;4975427;28;20504;-85
2021/07/10 16:30:58;;;;;;;;;;;;;;;;;;;;;
2021/07/10 16:34:23;;;;;;;4.07;3.77;;;25.60;79.80;;;;;;4846742;29;20448;-86
2021/07/10 16:37:57;;;;;;;5.23;4.83;;;25.40;78.70;;;;;;4853787;29;20488;-85
2021/07/10 16:41:45;;;;;;;7.30;5.17;;;25.50;78.70;;;;;;4872549;29;20937;-86
2021/07/10 16:44:38;;;;;;;5.47;5.07;;;25.40;79.40;;;;;;4877529;29;20425;-85
2021/07/10 16:47:12;;;;;;;6.00;5.57;;;25.40;79.80;;;;;;4902941;29;20474;-86
2021/07/10 16:50:43;;;;;;;5.83;5.33;;;25.20;80.10;;;;;;4965359;28;20822;-86
2021/07/10 16:53:32;;;;;;;5.37;4.97;;;25.30;79.80;;;;;;4896090;29;20570;-85
2021/07/10 16:56:26;;;;;;;5.53;5.03;;;25.20;81.10;;;;;;4923456;28;20445;-85
2021/07/10 16:59:45;;;;;;;;;;;;;;;;;;;;;
2021/07/10 17:03:36;;;;;;;5.43;4.70;;;25.20;82.40;;;;;;4972992;28;20432;-85
2021/07/10 17:06:15;;;;;;;5.70;5.30;;;25.70;81.60;;;;;;4945266;28;20467;-86
2021/07/10 17:14:04;;;;;;;4.80;4.33;;;25.50;83.00;;;;;;5028034;28;21014;-85
2021/07/10 17:16:31;;;;;;;5.03;4.63;;;25.50;80.90;;;;;;5015897;28;20534;-85
2021/07/10 17:19:12;;;;;;;5.30;4.90;;;25.70;80.00;;;;;;4926491;29;20493;-84
2021/07/10 17:21:39;;;;;;;5.37;4.97;;;25.50;80.40;;;;;;4952636;29;20456;-84
2021/07/10 17:24:09;;;;;;;5.00;4.70;;;25.30;81.10;;;;;;4939467;29;20449;-85
2021/07/10 17:26:37;;;;;;;4.13;3.83;;;25.20;82.20;;;;;;4930662;29;20636;-86
2021/07/10 17:32:22;;;;;;;5.20;4.80;;;25.40;82.00;;;;;;4954333;28;20481;-86
2021/07/10 17:34:49;;;;;;;5.20;4.80;;;25.60;81.00;;;;;;4938373;29;20449;-85
2021/07/10 17:37:16;;;;;;;5.17;4.67;;;25.60;80.60;;;;;;4948861;29;20454;-85
2021/07/10 17:40:23;;;;;;;5.50;5.07;;;25.40;81.40;;;;;;4962037;28;20468;-83
2021/07/10 17:43:08;;;;;;;5.20;4.80;;;25.40;81.30;;;;;;4949276;29;20420;-84
2021/07/10 17:45:35;;;;;;;5.30;4.90;;;25.40;82.20;;;;;;4954841;29;20457;-85
2021/07/10 17:48:02;;;;;;;4.60;4.30;;;25.20;82.70;;;;;;4955967;29;20477;-84
2021/07/10 17:50:28;;;;;;;5.27;4.87;;;25.50;82.20;;;;;;4939226;29;20907;-84
2021/07/10 17:56:06;;;;;;;5.30;4.80;;;25.60;80.90;;;;;;4961106;28;20431;-86
2021/07/10 17:59:20;;;;;;;5.87;4.83;;;25.60;81.10;;;;;;5016153;28;20455;-86
2021/07/10 18:02:41;;;;;;;6.60;6.00;;;25.30;81.50;;;;;;4974758;28;20481;-83
2021/07/10 18:05:54;;;;;;;5.83;4.20;;;25.30;82.20;;;;;;5011931;28;20425;-84
2021/07/10 18:08:21;;;;;;;5.50;5.00;;;25.30;82.20;;;;;;4999590;28;20466;-85
2021/07/10 18:10:47;;;;;;;6.17;4.53;;;25.30;82.20;;;;;;5003547;28;20565;-83
2021/07/10 18:25:40;;;;;;;4.90;4.50;;;24.90;84.90;;;;;;4842605;29;20491;-82
2021/07/10 18:33:14;;;;;;;;;;;;;;;;;;;;;
2021/07/10 18:40:44;;;;;;;4.30;3.97;;;24.70;85.10;;;;;;4877064;29;20562;-83
2021/07/10 18:44:04;;;;;;;5.17;4.77;;;24.60;85.20;;;;;;4824162;29;20446;-83
2021/07/10 18:46:31;;;;;;;5.40;4.67;;;24.70;85.70;;;;;;4892192;29;20522;-82
2021/07/10 18:56:54;;;;;;;5.23;3.47;;;23.90;91.70;;;;;;5010241;28;20474;-83
2021/07/10 19:01:56;;;;;;;6.40;5.80;;;22.90;95.00;;;;;;5648728;23;20514;-82
2021/07/10 19:04:23;;;;;;;4.33;3.80;;;22.50;96.50;;;;;;5032565;28;20430;-85
2021/07/10 19:06:53;;;;;;;3.60;3.30;;;22.30;97.60;;;;;;5018322;28;20434;-88
2021/07/10 19:09:39;;;;;;;5.50;5.00;;;22.10;98.50;;;;;;4995867;28;20483;-88
2021/07/10 19:15:45;;;;;;;3.90;3.60;;;21.70;99.90;;;;;;4982856;28;20442;-84
2021/07/10 19:18:16;;;;;;;4.20;2.67;;;21.40;99.90;;;;;;5029205;28;20442;-83
2021/07/10 19:20:43;;;;;;;2.70;2.20;;;21.30;99.90;;;;;;5017560;28;20504;-83
2021/07/10 19:23:13;;;;;;;3.03;2.10;;;21.00;99.90;;;;;;5023915;28;20457;-84
2021/07/10 19:26:06;;;;;;;2.63;1.90;;;20.80;99.90;;;;;;5022557;28;20484;-86
2021/07/10 19:28:32;;;;;;;2.90;2.07;;;20.60;99.90;;;;;;5006146;28;20473;-85
2021/07/10 19:30:59;;;;;;;2.70;1.70;;;20.40;99.90;;;;;;5013570;28;20458;-84
2021/07/10 19:37:32;;;;;;;6.03;3.50;;;20.10;99.90;;;;;;4997768;28;20534;-85
2021/07/10 19:43:21;;;;;;;5.10;2.00;;;20.00;99.90;;;;;;5020375;28;20533;-85
2021/07/10 19:46:07;;;;;;;;;;;;;;;;;;;;;
2021/07/10 19:49:42;;;;;;;2.83;2.47;;;20.00;99.90;;;;;;5043017;28;20534;-86
2021/07/10 19:56:42;;;;;;;3.60;2.53;;;20.00;99.90;;;;;;5043019;28;21150;-84
2021/07/10 20:00:10;;;;;;;3.40;2.83;;;20.00;99.90;;;;;;4964346;28;20843;-85
2021/07/10 20:02:37;;;;;;;3.57;2.10;;;20.00;99.90;;;;;;4958134;28;20483;-85
2021/07/10 20:05:06;;;;;;;3.03;2.40;;;20.00;99.90;;;;;;5027773;28;20517;-85
2021/07/10 20:07:33;;;;;;;2.23;2.03;;;20.00;99.90;;;;;;5047629;28;20484;-82
2021/07/10 20:10:00;;;;;;;2.73;2.10;;;20.10;99.90;;;;;;5017692;28;20469;-83
2021/07/10 20:13:02;;;;;;;2.33;1.80;;;20.10;99.90;;;;;;5030299;28;20465;-81
2021/07/10 20:15:55;;;;;;;2.10;2.00;;;20.30;99.90;;;;;;4953650;29;20549;-86
2021/07/10 20:18:22;;;;;;;2.00;1.80;;;20.50;99.90;;;;;;4948855;29;20665;-84
2021/07/10 20:25:40;;;;;;;4.07;2.00;;;20.00;99.90;;;;;;4957390;29;20527;-83
2021/07/10 20:28:02;;;;;;;2.80;2.10;;;20.00;99.90;;;;;;4934164;29;20488;-85
2021/07/10 20:30:30;;;;;;;2.00;1.80;;;20.10;99.90;;;;;;4948321;28;20517;-83
2021/07/10 20:32:57;;;;;;;2.37;2.17;;;20.00;99.90;;;;;;4956425;28;20450;-84
2021/07/10 20:42:18;;;;;;;3.60;2.10;;;20.30;99.90;;;;;;5044360;28;20404;-83
2021/07/10 20:44:45;;;;;;;2.30;2.10;;;20.20;99.90;;;;;;5029734;28;20510;-83
2021/07/10 20:47:17;;;;;;;2.50;2.30;;;20.20;99.90;;;;;;5023634;28;20895;-85
2021/07/10 20:54:44;;;;;;;2.43;2.23;;;20.40;99.90;;;;;;4904422;29;20557;-83
2021/07/10 20:58:14;;;;;;;2.40;2.20;;;20.20;99.90;;;;;;4899775;29;20467;-82
2021/07/10 21:00:55;;;;;;;4.57;2.33;;;20.20;99.90;;;;;;4913182;29;20470;-86
2021/07/10 21:03:23;;;;;;;3.27;2.70;;;20.30;99.90;;;;;;4891967;29;20471;-85
2021/07/10 21:05:50;;;;;;;4.17;2.50;;;20.10;99.90;;;;;;4946185;28;20466;-85
2021/07/10 21:08:17;;;;;;;2.77;2.20;;;20.00;99.90;;;;;;4970178;28;21013;-85
2021/07/10 21:10:44;;;;;;;6.47;2.50;;;20.00;99.90;;;;;;4971311;28;20494;-85
2021/07/10 21:13:17;;;;;;;3.17;2.33;;;20.20;99.90;;;;;;4985231;28;20455;-85
2021/07/10 21:15:47;;;;;;;2.77;2.57;;;20.10;99.90;;;;;;4985082;28;20459;-84
2021/07/10 21:18:27;;;;;;;;;;;;;;;;;;;;;
2021/07/10 21:28:40;;;;;;;4.50;3.50;;;19.80;99.90;;;;;;4902892;29;20489;-84
2021/07/10 21:31:59;;;;;;;;;;;;;;;;;;;;;
2021/07/10 21:34:49;;;;;;;4.53;4.13;;;20.00;99.90;;;;;;4891279;29;20542;-82
2021/07/10 21:37:16;;;;;;;7.33;5.20;;;20.00;99.90;;;;;;4932456;29;20445;-85
2021/07/10 21:43:12;;;;;;;3.63;3.33;;;19.70;99.90;;;;;;4929308;29;20489;-83
2021/07/10 21:45:39;;;;;;;4.43;4.00;;;19.70;99.90;;;;;;4935336;29;20454;-84
2021/07/10 21:48:06;;;;;;;4.13;3.70;;;19.60;99.90;;;;;;4930091;29;20518;-84